Sneek, Netherlands
Current Conditions -  °F | °C
As of 12:55 PM on Saturday 25 Oct 2014 (Local Time) from EHLW Reporting Station
Broken Clouds Broken Clouds  
Wind Chill: 59°   Ceiling: 3300
Heat Index: 59°   Visibility: 6mi
Dew Point: 50°   Wind: 8mph
Humidity: 72%   Direction: 250°WSW
Pressure: 30.03"   Gusts: NA
Location:  53.03°N, 5.66°E
Report Text: EHLW 251055Z AUTO 25007KT 9999 FEW029 BKN033 BKN039 15/10 Q1017 BLU
Loading
Personal Weather Stations






























Interactive Weather Map
Tropical Storm Tracking
New forecast layout! Learn more

10-Day Weather Forecast

Advertisements
Track Severe Weather on mobile